Time;durP1;ratioP1;P1;durP2;ratioP2;P2;SDS_P1;SDS_P2;PMS_P1;PMS_P2;Temp;Humidity;BMP_temperature;BMP_pressure;BME280_temperature;BME280_humidity;BME280_pressure;Samples;Min_cycle;Max_cycle;Signal;HPM_P1;HPM_P2
2024/03/10 00:02:22;;;;;;;;;;;;;;;;;;5138690;28;19914;-29
2024/03/10 00:04:48;;;;;;;;;;;;;;;;;;5138576;28;19927;-29
2024/03/10 00:07:13;;;;;;;;;;;;;;;;;;5138700;28;19912;-29
2024/03/10 00:09:39;;;;;;;;;;;;;;;;;;5138963;28;19907;-29
2024/03/10 00:12:05;;;;;;;;;;;;;;;;;;5138755;28;19914;-28
2024/03/10 00:14:32;;;;;;;;;;;;;;;;;;5138620;28;19911;-28
2024/03/10 00:16:58;;;;;;;;;;;;;;;;;;5138321;28;19912;-30
2024/03/10 00:19:25;;;;;;;;;;;;;;;;;;5138845;28;19915;-30
2024/03/10 00:21:51;;;;;;;;;;;;;;;;;;5139157;28;19907;-30
2024/03/10 00:24:19;;;;;;;;;;;;;;;;;;5138595;28;19914;-29
2024/03/10 00:26:45;;;;;;;;;;;;;;;;;;5139080;28;19914;-28
2024/03/10 00:29:13;;;;;;;;;;;;;;;;;;5138582;28;19907;-28
2024/03/10 00:31:39;;;;;;;;;;;;;;;;;;5138629;28;19907;-28
2024/03/10 00:34:05;;;;;;;;;;;;;;;;;;5138711;28;20251;-28
2024/03/10 00:36:31;;;;;;;;;;;;;;;;;;5138242;28;19918;-28
2024/03/10 00:38:57;;;;;;;;;;;;;;;;;;5138412;28;19907;-31
2024/03/10 00:41:23;;;;;;;;;;;;;;;;;;5138738;28;19915;-28
2024/03/10 00:43:49;;;;;;;;;;;;;;;;;;5138416;28;19908;-28
2024/03/10 00:46:15;;;;;;;;;;;;;;;;;;5138704;28;19968;-30
2024/03/10 00:48:41;;;;;;;;;;;;;;;;;;5138620;28;20374;-29
2024/03/10 00:51:07;;;;;;;;;;;;;;;;;;5140412;27;19914;-28
2024/03/10 00:53:33;;;;;;;;;;;;;;;;;;5142144;27;20285;-30
2024/03/10 00:55:59;;;;;;;;;;;;;;;;;;5142448;27;19911;-28
2024/03/10 00:58:24;;;;;;;;;;;;;;;;;;5142198;27;19974;-28
2024/03/10 01:00:50;;;;;;;;;;;;;;;;;;5141971;27;19907;-28
2024/03/10 01:03:17;;;;;;;;;;;;;;;;;;5142134;27;19952;-28
2024/03/10 01:05:43;;;;;;;;;;;;;;;;;;5141764;27;19926;-28
2024/03/10 01:08:09;;;;;;;;;;;;;;;;;;5142069;27;19914;-29
2024/03/10 01:10:37;;;;;;;;;;;;;;;;;;5140876;27;21363;-29
2024/03/10 01:13:03;;;;;;;;;;;;;;;;;;5141961;27;19907;-28
2024/03/10 01:15:31;;;;;;;;;;;;;;;;;;5141725;27;20384;-29
2024/03/10 01:17:57;;;;;;;;;;;;;;;;;;5141698;27;20366;-29
2024/03/10 01:20:26;;;;;;;;;;;;;;;;;;5141451;27;19951;-28
2024/03/10 01:22:52;;;;;;;;;;;;;;;;;;5141798;27;19931;-28
2024/03/10 01:25:19;;;;;;;;;;;;;;;;;;5141904;27;19914;-29
2024/03/10 01:27:45;;;;;;;;;;;;;;;;;;5141696;27;19907;-29
2024/03/10 01:30:11;;;;;;;;;;;;;;;;;;5141674;27;19908;-28
2024/03/10 01:32:37;;;;;;;;;;;;;;;;;;5141607;27;19915;-28
2024/03/10 01:35:05;;;;;;;;;;;;;;;;;;5141411;27;20285;-29
2024/03/10 01:37:32;;;;;;;;;;;;;;;;;;5141375;27;19907;-28
2024/03/10 01:39:58;;;;;;;;;;;;;;;;;;5141173;27;19907;-28
2024/03/10 01:42:25;;;;;;;;;;;;;;;;;;5141400;27;19957;-29
2024/03/10 01:44:53;;;;;;;;;;;;;;;;;;5141109;27;19907;-29
2024/03/10 01:47:19;;;;;;;;;;;;;;;;;;5141187;27;19914;-30
2024/03/10 01:49:45;;;;;;;;;;;;;;;;;;5141079;27;19908;-31
2024/03/10 01:52:11;;;;;;;;;;;;;;;;;;5141266;27;19949;-28
2024/03/10 01:54:37;;;;;;;;;;;;;;;;;;5141000;27;19907;-28
2024/03/10 01:57:04;;;;;;;;;;;;;;;;;;5140915;27;19994;-30
2024/03/10 01:59:31;;;;;;;;;;;;;;;;;;5140789;27;19907;-28
2024/03/10 02:01:57;;;;;;;;;;;;;;;;;;5139558;27;20330;-28
2024/03/10 02:04:23;;;;;;;;;;;;;;;;;;5140578;27;19962;-29
2024/03/10 02:06:50;;;;;;;;;;;;;;;;;;5141072;27;19909;-29
2024/03/10 02:09:18;;;;;;;;;;;;;;;;;;5140865;27;19919;-30
2024/03/10 02:11:44;;;;;;;;;;;;;;;;;;5141073;27;19907;-28
2024/03/10 02:14:10;;;;;;;;;;;;;;;;;;5140573;27;19907;-28
2024/03/10 02:16:36;;;;;;;;;;;;;;;;;;5140683;27;20023;-28
2024/03/10 02:19:03;;;;;;;;;;;;;;;;;;5140470;27;19907;-28
2024/03/10 02:21:28;;;;;;;;;;;;;;;;;;5140809;27;19916;-28
2024/03/10 02:23:55;;;;;;;;;;;;;;;;;;5140669;27;19911;-29
2024/03/10 02:26:21;;;;;;;;;;;;;;;;;;5140304;27;20286;-28
2024/03/10 02:28:57;;;;;;;;;;;;;;;;;;5140415;27;19914;-28
2024/03/10 02:47:51;;;;;;;;;;;;;;;;;;5139780;27;20388;-29
2024/03/10 02:50:17;;;;;;;;;;;;;;;;;;5140078;27;19908;-29
2024/03/10 02:52:44;;;;;;;;;;;;;;;;;;5140091;27;19919;-28
2024/03/10 02:55:11;;;;;;;;;;;;;;;;;;5140117;27;19908;-28
2024/03/10 02:57:37;;;;;;;;;;;;;;;;;;5139986;27;19907;-29
2024/03/10 03:00:03;;;;;;;;;;;;;;;;;;5139700;27;19911;-28
2024/03/10 03:02:29;;;;;;;;;;;;;;;;;;5139691;27;19960;-29
2024/03/10 03:04:55;;;;;;;;;;;;;;;;;;5139608;27;19927;-28
2024/03/10 03:07:22;;;;;;;;;;;;;;;;;;5140055;27;19911;-28
2024/03/10 03:09:48;;;;;;;;;;;;;;;;;;5139575;27;19946;-30
2024/03/10 03:12:14;;;;;;;;;;;;;;;;;;5139505;27;20285;-29
2024/03/10 03:14:40;;;;;;;;;;;;;;;;;;5139581;27;20270;-29
2024/03/10 03:17:05;;;;;;;;;;;;;;;;;;5139387;27;19911;-29
2024/03/10 03:19:36;;;;;;;;;;;;;;;;;;5139800;27;19907;-30
2024/03/10 03:22:02;;;;;;;;;;;;;;;;;;5139268;27;19965;-28
2024/03/10 03:24:28;;;;;;;;;;;;;;;;;;5139588;27;19907;-30
2024/03/10 03:26:54;;;;;;;;;;;;;;;;;;5139126;27;19981;-28
2024/03/10 03:29:20;;;;;;;;;;;;;;;;;;5139505;27;20322;-28
2024/03/10 03:31:46;;;;;;;;;;;;;;;;;;5139379;27;19911;-29
2024/03/10 03:34:12;;;;;;;;;;;;;;;;;;5139190;27;19911;-28
2024/03/10 03:36:38;;;;;;;;;;;;;;;;;;5139172;27;19911;-30
2024/03/10 03:39:09;;;;;;;;;;;;;;;;;;5139095;27;19908;-29
2024/03/10 03:41:35;;;;;;;;;;;;;;;;;;5138877;27;19907;-28
2024/03/10 03:44:04;;;;;;;;;;;;;;;;;;5139250;27;19903;-28
2024/03/10 03:46:29;;;;;;;;;;;;;;;;;;5139103;27;19908;-28
2024/03/10 03:48:55;;;;;;;;;;;;;;;;;;5138938;27;19910;-30
2024/03/10 03:51:22;;;;;;;;;;;;;;;;;;5139223;27;19907;-28
2024/03/10 03:53:48;;;;;;;;;;;;;;;;;;5139116;28;19916;-28
2024/03/10 03:56:15;;;;;;;;;;;;;;;;;;5138609;28;19988;-28
2024/03/10 03:58:41;;;;;;;;;;;;;;;;;;5139090;28;20278;-30
2024/03/10 04:01:06;;;;;;;;;;;;;;;;;;5139067;28;19914;-32
2024/03/10 04:03:32;;;;;;;;;;;;;;;;;;5139315;28;19914;-29
2024/03/10 04:05:58;;;;;;;;;;;;;;;;;;5138501;28;19923;-28
2024/03/10 04:08:24;;;;;;;;;;;;;;;;;;5139265;28;20278;-28
2024/03/10 04:10:50;;;;;;;;;;;;;;;;;;5138769;28;19907;-31
2024/03/10 04:13:16;;;;;;;;;;;;;;;;;;5138543;28;19960;-28
2024/03/10 04:15:42;;;;;;;;;;;;;;;;;;5138895;28;19912;-28
2024/03/10 04:18:08;;;;;;;;;;;;;;;;;;5138871;28;20270;-30
2024/03/10 04:20:35;;;;;;;;;;;;;;;;;;5139059;28;19954;-28
2024/03/10 04:23:02;;;;;;;;;;;;;;;;;;5138937;28;19914;-29
2024/03/10 04:25:29;;;;;;;;;;;;;;;;;;5139429;27;20419;-28
2024/03/10 04:27:55;;;;;;;;;;;;;;;;;;5142888;27;19908;-28
2024/03/10 04:30:22;;;;;;;;;;;;;;;;;;5142800;27;19915;-28
2024/03/10 04:32:49;;;;;;;;;;;;;;;;;;5143025;27;19960;-28
2024/03/10 04:35:15;;;;;;;;;;;;;;;;;;5142682;27;19935;-28
2024/03/10 04:37:41;;;;;;;;;;;;;;;;;;5142411;27;19967;-28
2024/03/10 04:40:10;;;;;;;;;;;;;;;;;;5142641;27;20366;-29
2024/03/10 04:42:38;;;;;;;;;;;;;;;;;;5142153;27;20374;-28
2024/03/10 04:45:04;;;;;;;;;;;;;;;;;;5142611;27;19914;-28
2024/03/10 04:47:30;;;;;;;;;;;;;;;;;;5142772;27;19943;-28
2024/03/10 04:49:56;;;;;;;;;;;;;;;;;;5142255;27;19979;-29
2024/03/10 04:52:21;;;;;;;;;;;;;;;;;;5142768;27;19907;-29
2024/03/10 04:54:47;;;;;;;;;;;;;;;;;;5142641;27;20258;-30
2024/03/10 04:57:13;;;;;;;;;;;;;;;;;;5142238;27;19915;-28
2024/03/10 04:59:39;;;;;;;;;;;;;;;;;;5142050;27;19907;-29
2024/03/10 05:02:05;;;;;;;;;;;;;;;;;;5142379;27;19914;-29
2024/03/10 05:04:31;;;;;;;;;;;;;;;;;;5141846;27;20002;-29
2024/03/10 05:06:58;;;;;;;;;;;;;;;;;;5142303;27;20404;-28
2024/03/10 05:09:24;;;;;;;;;;;;;;;;;;5141922;27;19911;-29
2024/03/10 05:11:50;;;;;;;;;;;;;;;;;;5141720;27;19911;-29
2024/03/10 05:14:16;;;;;;;;;;;;;;;;;;5123175;27;19907;-28
2024/03/10 05:16:43;;;;;;;;;;;;;;;;;;5141846;27;20259;-28
2024/03/10 05:19:09;;;;;;;;;;;;;;;;;;5141752;27;19907;-28
2024/03/10 05:21:35;;;;;;;;;;;;;;;;;;5141546;27;19964;-30
2024/03/10 05:24:02;;;;;;;;;;;;;;;;;;5141903;27;20006;-28
2024/03/10 05:26:28;;;;;;;;;;;;;;;;;;5141777;27;20271;-29
2024/03/10 05:28:54;;;;;;;;;;;;;;;;;;5141937;27;19912;-28
2024/03/10 05:31:20;;;;;;;;;;;;;;;;;;5141432;27;19908;-29
2024/03/10 05:33:46;;;;;;;;;;;;;;;;;;5141464;27;19907;-31
2024/03/10 05:36:12;;;;;;;;;;;;;;;;;;5141373;27;20274;-28
2024/03/10 05:38:38;;;;;;;;;;;;;;;;;;5141777;27;19907;-29
2024/03/10 05:41:04;;;;;;;;;;;;;;;;;;5141503;27;19908;-29
2024/03/10 05:43:30;;;;;;;;;;;;;;;;;;5141284;27;19912;-29
2024/03/10 05:45:56;;;;;;;;;;;;;;;;;;5141177;27;19911;-28
2024/03/10 05:48:22;;;;;;;;;;;;;;;;;;5141314;27;19947;-28
2024/03/10 05:50:49;;;;;;;;;;;;;;;;;;5141537;27;19904;-28
2024/03/10 05:53:15;;;;;;;;;;;;;;;;;;5141071;27;19908;-30
2024/03/10 05:55:41;;;;;;;;;;;;;;;;;;5141005;27;19912;-28
2024/03/10 05:58:07;;;;;;;;;;;;;;;;;;5141132;27;19914;-28
2024/03/10 06:00:33;;;;;;;;;;;;;;;;;;5140918;27;19908;-28
2024/03/10 06:02:59;;;;;;;;;;;;;;;;;;5141000;27;19907;-30
2024/03/10 06:05:26;;;;;;;;;;;;;;;;;;5140869;27;19920;-28
2024/03/10 06:07:51;;;;;;;;;;;;;;;;;;5140686;27;20002;-28
2024/03/10 06:10:18;;;;;;;;;;;;;;;;;;5140700;27;19951;-28
2024/03/10 06:12:44;;;;;;;;;;;;;;;;;;5140553;27;19940;-29
2024/03/10 06:15:10;;;;;;;;;;;;;;;;;;5140782;27;20315;-29
2024/03/10 06:17:37;;;;;;;;;;;;;;;;;;5140458;27;19908;-29
2024/03/10 06:25:33;;;;;;;;;;;;;;;;;;5140351;27;19913;-28
2024/03/10 06:27:59;;;;;;;;;;;;;;;;;;5140219;27;19912;-29
2024/03/10 06:30:25;;;;;;;;;;;;;;;;;;5140721;27;19976;-29
2024/03/10 06:32:51;;;;;;;;;;;;;;;;;;5140489;27;19908;-28
2024/03/10 06:35:17;;;;;;;;;;;;;;;;;;5140584;27;19907;-28
2024/03/10 06:37:43;;;;;;;;;;;;;;;;;;5140400;27;19908;-28
2024/03/10 06:40:09;;;;;;;;;;;;;;;;;;5140072;27;19908;-28
2024/03/10 06:42:36;;;;;;;;;;;;;;;;;;5140318;27;19915;-29
2024/03/10 06:45:04;;;;;;;;;;;;;;;;;;5139995;27;19907;-28
2024/03/10 06:47:30;;;;;;;;;;;;;;;;;;5121413;27;19907;-29
2024/03/10 06:49:56;;;;;;;;;;;;;;;;;;5139843;27;19914;-30
2024/03/10 06:52:22;;;;;;;;;;;;;;;;;;5140031;27;19907;-28
2024/03/10 06:54:48;;;;;;;;;;;;;;;;;;5139998;27;19907;-28
2024/03/10 06:57:14;;;;;;;;;;;;;;;;;;5140013;27;19916;-28
2024/03/10 06:59:40;;;;;;;;;;;;;;;;;;5140012;27;19915;-29
2024/03/10 07:02:11;;;;;;;;;;;;;;;;;;5139650;27;19914;-28
2024/03/10 07:04:38;;;;;;;;;;;;;;;;;;5139573;27;19920;-28
2024/03/10 07:07:04;;;;;;;;;;;;;;;;;;5139443;27;19911;-28
2024/03/10 07:09:30;;;;;;;;;;;;;;;;;;5139337;27;19960;-30
2024/03/10 07:11:57;;;;;;;;;;;;;;;;;;5139696;27;19950;-29
2024/03/10 07:14:22;;;;;;;;;;;;;;;;;;5139470;27;19907;-28
2024/03/10 07:16:49;;;;;;;;;;;;;;;;;;5139527;27;19917;-28
2024/03/10 07:19:18;;;;;;;;;;;;;;;;;;5139585;27;19907;-28
2024/03/10 07:21:44;;;;;;;;;;;;;;;;;;5139114;27;19915;-28
2024/03/10 07:24:10;;;;;;;;;;;;;;;;;;5139247;27;19914;-29
2024/03/10 07:26:36;;;;;;;;;;;;;;;;;;5139007;27;19930;-30
2024/03/10 07:29:02;;;;;;;;;;;;;;;;;;5139407;27;20282;-28
2024/03/10 07:31:28;;;;;;;;;;;;;;;;;;5139245;27;19907;-29
2024/03/10 07:33:54;;;;;;;;;;;;;;;;;;5139070;27;19952;-28
2024/03/10 07:36:22;;;;;;;;;;;;;;;;;;5138908;27;19915;-29
2024/03/10 07:38:48;;;;;;;;;;;;;;;;;;5139109;27;19908;-29
2024/03/10 07:41:15;;;;;;;;;;;;;;;;;;5139571;27;19918;-31
2024/03/10 07:43:42;;;;;;;;;;;;;;;;;;5139252;27;19908;-29
2024/03/10 07:46:08;;;;;;;;;;;;;;;;;;5139065;27;19908;-29
2024/03/10 07:48:35;;;;;;;;;;;;;;;;;;5139375;27;20447;-29
2024/03/10 07:51:02;;;;;;;;;;;;;;;;;;5139014;27;19915;-29
2024/03/10 07:53:28;;;;;;;;;;;;;;;;;;5120898;27;19961;-30
2024/03/10 07:55:54;;;;;;;;;;;;;;;;;;5117870;28;19951;-30
2024/03/10 07:58:20;;;;;;;;;;;;;;;;;;5099924;28;20425;-29
2024/03/10 08:00:46;;;;;;;;;;;;;;;;;;5119881;28;19912;-28
2024/03/10 08:03:12;;;;;;;;;;;;;;;;;;5122710;28;19908;-31
2024/03/10 08:05:38;;;;;;;;;;;;;;;;;;5122458;28;20004;-28
2024/03/10 08:08:04;;;;;;;;;;;;;;;;;;5122658;28;19911;-30
2024/03/10 08:10:31;;;;;;;;;;;;;;;;;;5122383;28;20435;-28
2024/03/10 08:12:58;;;;;;;;;;;;;;;;;;5122123;28;19908;-29
2024/03/10 08:15:24;;;;;;;;;;;;;;;;;;5122384;28;19980;-29
2024/03/10 08:17:52;;;;;;;;;;;;;;;;;;5122625;28;19908;-28
2024/03/10 08:20:19;;;;;;;;;;;;;;;;;;5122383;28;19911;-29
2024/03/10 08:22:45;;;;;;;;;;;;;;;;;;5121947;28;19942;-30
2024/03/10 08:25:11;;;;;;;;;;;;;;;;;;5122058;28;19908;-28
2024/03/10 08:27:37;;;;;;;;;;;;;;;;;;5122534;28;20248;-28
2024/03/10 08:30:03;;;;;;;;;;;;;;;;;;5121994;28;19935;-31
2024/03/10 08:32:30;;;;;;;;;;;;;;;;;;5121793;28;19908;-29
2024/03/10 08:34:56;;;;;;;;;;;;;;;;;;5122176;28;19908;-28
2024/03/10 08:37:21;;;;;;;;;;;;;;;;;;5122258;28;20041;-29
2024/03/10 08:39:50;;;;;;;;;;;;;;;;;;5122160;28;19943;-29
2024/03/10 08:42:16;;;;;;;;;;;;;;;;;;5122094;28;19908;-29
2024/03/10 08:44:42;;;;;;;;;;;;;;;;;;5122200;28;19907;-28
2024/03/10 08:47:08;;;;;;;;;;;;;;;;;;5121908;28;19977;-29
2024/03/10 08:49:34;;;;;;;;;;;;;;;;;;5121596;28;19911;-28
2024/03/10 08:52:06;;;;;;;;;;;;;;;;;;5121685;28;19960;-28
2024/03/10 08:54:32;;;;;;;;;;;;;;;;;;5121683;28;19912;-28
2024/03/10 08:56:58;;;;;;;;;;;;;;;;;;5121803;28;19912;-45
2024/03/10 08:59:24;;;;;;;;;;;;;;;;;;5121435;28;19912;-45
2024/03/10 09:01:51;;;;;;;;;;;;;;;;;;5121504;28;19915;-45
2024/03/10 09:04:16;;;;;;;;;;;;;;;;;;5121086;28;20282;-45
2024/03/10 09:06:43;;;;;;;;;;;;;;;;;;5121483;28;19908;-45
2024/03/10 09:09:13;;;;;;;;;;;;;;;;;;5121197;28;19908;-45
2024/03/10 09:11:39;;;;;;;;;;;;;;;;;;5120727;28;19961;-44
2024/03/10 09:14:07;;;;;;;;;;;;;;;;;;5121164;28;19911;-45
2024/03/10 09:16:33;;;;;;;;;;;;;;;;;;5120862;28;20278;-45
2024/03/10 09:18:59;;;;;;;;;;;;;;;;;;5121064;28;19908;-45
2024/03/10 09:21:25;;;;;;;;;;;;;;;;;;5121322;28;19908;-45
2024/03/10 09:23:51;;;;;;;;;;;;;;;;;;5121016;28;19908;-45
2024/03/10 09:26:17;;;;;;;;;;;;;;;;;;5120783;28;19911;-45
2024/03/10 09:28:45;;;;;;;;;;;;;;;;;;5121147;28;19912;-45
2024/03/10 09:31:11;;;;;;;;;;;;;;;;;;5121021;28;19914;-45
2024/03/10 09:33:37;;;;;;;;;;;;;;;;;;5120773;28;19908;-45
2024/03/10 09:36:05;;;;;;;;;;;;;;;;;;5120740;28;20279;-45
2024/03/10 09:38:37;;;;;;;;;;;;;;;;;;5120625;28;19994;-45
2024/03/10 09:41:05;;;;;;;;;;;;;;;;;;5121126;28;20336;-45
2024/03/10 09:43:31;;;;;;;;;;;;;;;;;;5120501;28;19915;-45
2024/03/10 09:45:57;;;;;;;;;;;;;;;;;;5121000;28;19908;-45
2024/03/10 09:48:23;;;;;;;;;;;;;;;;;;5120409;28;19908;-45
2024/03/10 09:50:49;;;;;;;;;;;;;;;;;;5120734;28;19915;-44
2024/03/10 09:53:17;;;;;;;;;;;;;;;;;;5120448;28;20283;-45
2024/03/10 09:55:43;;;;;;;;;;;;;;;;;;5120377;28;19972;-45
2024/03/10 09:58:15;;;;;;;;;;;;;;;;;;5120758;28;20324;-45
2024/03/10 10:00:44;;;;;;;;;;;;;;;;;;5120099;28;20378;-45
2024/03/10 10:03:12;;;;;;;;;;;;;;;;;;5120015;28;19914;-45
2024/03/10 10:05:42;;;;;;;;;;;;;;;;;;5119824;28;20375;-45
2024/03/10 10:08:10;;;;;;;;;;;;;;;;;;5119987;28;19911;-45
2024/03/10 10:10:36;;;;;;;;;;;;;;;;;;5119957;28;20282;-45
2024/03/10 10:13:03;;;;;;;;;;;;;;;;;;5119975;28;19907;-45
2024/03/10 10:15:30;;;;;;;;;;;;;;;;;;5120310;28;20386;-45
2024/03/10 10:17:56;;;;;;;;;;;;;;;;;;5119858;28;19908;-45
2024/03/10 10:20:25;;;;;;;;;;;;;;;;;;5120142;28;19908;-45
2024/03/10 10:22:52;;;;;;;;;;;;;;;;;;5119309;28;19951;-45
2024/03/10 10:25:17;;;;;;;;;;;;;;;;;;5120119;28;19908;-45
2024/03/10 10:27:43;;;;;;;;;;;;;;;;;;5119719;28;19908;-45
2024/03/10 10:30:10;;;;;;;;;;;;;;;;;;5119700;28;19915;-44
2024/03/10 10:32:35;;;;;;;;;;;;;;;;;;5119438;28;19908;-45
2024/03/10 10:35:02;;;;;;;;;;;;;;;;;;5120097;28;19956;-45
2024/03/10 10:37:34;;;;;;;;;;;;;;;;;;5119527;28;19919;-45
2024/03/10 10:40:00;;;;;;;;;;;;;;;;;;5119067;28;19947;-45
2024/03/10 10:42:27;;;;;;;;;;;;;;;;;;5119345;28;20270;-45
2024/03/10 10:44:53;;;;;;;;;;;;;;;;;;5119323;28;19908;-45
2024/03/10 10:47:19;;;;;;;;;;;;;;;;;;5119265;28;19916;-45
2024/03/10 10:49:45;;;;;;;;;;;;;;;;;;5119277;28;19908;-45
2024/03/10 10:52:12;;;;;;;;;;;;;;;;;;5119215;28;20358;-45
2024/03/10 10:54:38;;;;;;;;;;;;;;;;;;5119445;28;19910;-45
2024/03/10 10:57:04;;;;;;;;;;;;;;;;;;5119214;28;19923;-45
2024/03/10 10:59:34;;;;;;;;;;;;;;;;;;5119329;28;19908;-45
2024/03/10 11:02:00;;;;;;;;;;;;;;;;;;5118876;28;19915;-45
2024/03/10 11:04:27;;;;;;;;;;;;;;;;;;5118874;28;19916;-45
2024/03/10 11:06:54;;;;;;;;;;;;;;;;;;5118978;28;20413;-45
2024/03/10 11:09:20;;;;;;;;;;;;;;;;;;5118920;28;20240;-45
2024/03/10 11:11:47;;;;;;;;;;;;;;;;;;5118751;28;19907;-45
2024/03/10 11:14:16;;;;;;;;;;;;;;;;;;5118639;28;19904;-45
2024/03/10 11:16:42;;;;;;;;;;;;;;;;;;5118575;28;19919;-46
2024/03/10 11:19:08;;;;;;;;;;;;;;;;;;5118955;28;19907;-44
2024/03/10 11:21:34;;;;;;;;;;;;;;;;;;5119114;28;19912;-45
2024/03/10 11:24:00;;;;;;;;;;;;;;;;;;5118958;28;19908;-45
2024/03/10 11:26:26;;;;;;;;;;;;;;;;;;5119104;28;19916;-45
2024/03/10 11:28:52;;;;;;;;;;;;;;;;;;5118689;28;20376;-45
2024/03/10 11:31:19;;;;;;;;;;;;;;;;;;5118598;28;19908;-45
2024/03/10 11:33:45;;;;;;;;;;;;;;;;;;5100224;28;19912;-45
2024/03/10 11:36:11;;;;;;;;;;;;;;;;;;5118357;28;20424;-45
2024/03/10 11:38:37;;;;;;;;;;;;;;;;;;5118867;28;19954;-45
2024/03/10 11:41:07;;;;;;;;;;;;;;;;;;5118344;28;19904;-45
2024/03/10 11:43:35;;;;;;;;;;;;;;;;;;5118331;28;19998;-45
2024/03/10 11:46:01;;;;;;;;;;;;;;;;;;5118057;28;19904;-46
2024/03/10 11:48:29;;;;;;;;;;;;;;;;;;5118864;28;20313;-45
2024/03/10 11:50:55;;;;;;;;;;;;;;;;;;5118489;28;19904;-45
2024/03/10 11:53:21;;;;;;;;;;;;;;;;;;5118651;28;19919;-45
2024/03/10 11:55:47;;;;;;;;;;;;;;;;;;5118210;28;19998;-45
2024/03/10 11:58:13;;;;;;;;;;;;;;;;;;5118467;28;19961;-45
2024/03/10 12:00:39;;;;;;;;;;;;;;;;;;5118446;28;19912;-45
2024/03/10 12:03:05;;;;;;;;;;;;;;;;;;5118042;28;19908;-45
2024/03/10 12:05:31;;;;;;;;;;;;;;;;;;5118024;28;19919;-45
2024/03/10 12:07:58;;;;;;;;;;;;;;;;;;5118229;28;19914;-45
2024/03/10 12:10:24;;;;;;;;;;;;;;;;;;5117994;28;19914;-45
2024/03/10 12:12:50;;;;;;;;;;;;;;;;;;5118044;28;19907;-45
2024/03/10 12:15:17;;;;;;;;;;;;;;;;;;5118063;28;19908;-45
2024/03/10 12:17:43;;;;;;;;;;;;;;;;;;5117948;28;20386;-45
2024/03/10 12:20:12;;;;;;;;;;;;;;;;;;5118233;28;19935;-45
2024/03/10 12:22:39;;;;;;;;;;;;;;;;;;5118205;28;19908;-45
2024/03/10 12:25:06;;;;;;;;;;;;;;;;;;5118072;28;19938;-45
2024/03/10 12:27:35;;;;;;;;;;;;;;;;;;5118179;28;20011;-45
2024/03/10 12:30:01;;;;;;;;;;;;;;;;;;5118157;28;19915;-46
2024/03/10 12:32:27;;;;;;;;;;;;;;;;;;5118343;28;20374;-45
2024/03/10 12:34:53;;;;;;;;;;;;;;;;;;5118225;28;19978;-45
2024/03/10 12:37:19;;;;;;;;;;;;;;;;;;5117764;28;19918;-45
2024/03/10 12:39:46;;;;;;;;;;;;;;;;;;5117942;28;20317;-45
2024/03/10 12:42:13;;;;;;;;;;;;;;;;;;5118058;28;19911;-46
2024/03/10 12:44:39;;;;;;;;;;;;;;;;;;5117580;28;19908;-45
2024/03/10 12:47:05;;;;;;;;;;;;;;;;;;5119777;28;20032;-45
2024/03/10 12:49:31;;;;;;;;;;;;;;;;;;5122156;28;19939;-45
2024/03/10 12:51:58;;;;;;;;;;;;;;;;;;5121608;28;20224;-45
2024/03/10 12:54:24;;;;;;;;;;;;;;;;;;5121367;28;19933;-45
2024/03/10 12:56:50;;;;;;;;;;;;;;;;;;5121617;28;19995;-45
2024/03/10 12:59:16;;;;;;;;;;;;;;;;;;5121582;28;19930;-45
2024/03/10 13:01:42;;;;;;;;;;;;;;;;;;5121328;28;19914;-45
2024/03/10 13:04:08;;;;;;;;;;;;;;;;;;5121493;28;19908;-45
2024/03/10 13:06:34;;;;;;;;;;;;;;;;;;5121747;28;20285;-45
2024/03/10 13:09:00;;;;;;;;;;;;;;;;;;5121380;28;20041;-45
2024/03/10 13:11:26;;;;;;;;;;;;;;;;;;5121621;28;19951;-45
2024/03/10 13:13:52;;;;;;;;;;;;;;;;;;5121185;28;19915;-45
2024/03/10 13:16:18;;;;;;;;;;;;;;;;;;5121430;28;19912;-45
2024/03/10 13:18:44;;;;;;;;;;;;;;;;;;5121210;28;19957;-45
2024/03/10 13:21:10;;;;;;;;;;;;;;;;;;5121159;28;20343;-45
2024/03/10 13:23:36;;;;;;;;;;;;;;;;;;5121035;28;19915;-45
2024/03/10 13:26:03;;;;;;;;;;;;;;;;;;5121171;28;19907;-45
2024/03/10 13:28:29;;;;;;;;;;;;;;;;;;5120695;28;20006;-45
2024/03/10 13:30:57;;;;;;;;;;;;;;;;;;5121095;28;19951;-45
2024/03/10 13:33:23;;;;;;;;;;;;;;;;;;5120722;28;19914;-45
2024/03/10 13:35:51;;;;;;;;;;;;;;;;;;5121014;28;20006;-45
2024/03/10 13:38:17;;;;;;;;;;;;;;;;;;5120992;28;20624;-45
2024/03/10 13:40:43;;;;;;;;;;;;;;;;;;5121425;28;20425;-45
2024/03/10 13:43:12;;;;;;;;;;;;;;;;;;5120598;28;19914;-45
2024/03/10 13:45:40;;;;;;;;;;;;;;;;;;5120678;28;19967;-45
2024/03/10 13:48:07;;;;;;;;;;;;;;;;;;5120688;28;19908;-45
2024/03/10 13:50:33;;;;;;;;;;;;;;;;;;5120614;28;19946;-45
2024/03/10 13:52:59;;;;;;;;;;;;;;;;;;5120451;28;19911;-45
2024/03/10 13:55:26;;;;;;;;;;;;;;;;;;5120511;28;19907;-45
2024/03/10 13:57:52;;;;;;;;;;;;;;;;;;5120511;28;19914;-45
2024/03/10 14:00:19;;;;;;;;;;;;;;;;;;5120070;28;20333;-45
2024/03/10 14:02:45;;;;;;;;;;;;;;;;;;5120198;28;20278;-45
2024/03/10 14:05:11;;;;;;;;;;;;;;;;;;5120217;28;19920;-45
2024/03/10 14:07:37;;;;;;;;;;;;;;;;;;5120453;28;19907;-45
2024/03/10 14:10:03;;;;;;;;;;;;;;;;;;5120462;28;19908;-45
2024/03/10 14:12:29;;;;;;;;;;;;;;;;;;5120038;28;19915;-45
2024/03/10 14:14:55;;;;;;;;;;;;;;;;;;5120535;28;19982;-45
2024/03/10 14:17:21;;;;;;;;;;;;;;;;;;5119670;28;20321;-45
2024/03/10 14:19:47;;;;;;;;;;;;;;;;;;5120277;28;19908;-45
2024/03/10 14:22:13;;;;;;;;;;;;;;;;;;5119836;28;20390;-45
2024/03/10 14:24:40;;;;;;;;;;;;;;;;;;5120141;28;19915;-45
2024/03/10 14:27:06;;;;;;;;;;;;;;;;;;5120002;28;19903;-45
2024/03/10 14:29:33;;;;;;;;;;;;;;;;;;5120246;28;20387;-45
2024/03/10 14:31:59;;;;;;;;;;;;;;;;;;5119620;28;19911;-45
2024/03/10 14:34:25;;;;;;;;;;;;;;;;;;5119986;28;19911;-45
2024/03/10 14:36:52;;;;;;;;;;;;;;;;;;5119597;28;19919;-45
2024/03/10 14:39:18;;;;;;;;;;;;;;;;;;5119606;28;19908;-45
2024/03/10 14:41:44;;;;;;;;;;;;;;;;;;5119745;28;19961;-45
2024/03/10 14:44:10;;;;;;;;;;;;;;;;;;5119428;28;20282;-45
2024/03/10 14:46:36;;;;;;;;;;;;;;;;;;5119899;28;19908;-45
2024/03/10 14:49:04;;;;;;;;;;;;;;;;;;5119505;28;19958;-45
2024/03/10 14:51:31;;;;;;;;;;;;;;;;;;5119269;28;19907;-45
2024/03/10 14:53:57;;;;;;;;;;;;;;;;;;5119412;28;19907;-45
2024/03/10 14:56:23;;;;;;;;;;;;;;;;;;5119210;28;19919;-45
2024/03/10 14:58:49;;;;;;;;;;;;;;;;;;5119080;28;19914;-46
2024/03/10 15:01:17;;;;;;;;;;;;;;;;;;5119410;28;19943;-45
2024/03/10 15:03:43;;;;;;;;;;;;;;;;;;5119698;28;20395;-45
2024/03/10 15:06:09;;;;;;;;;;;;;;;;;;5118716;28;19920;-45
2024/03/10 15:08:38;;;;;;;;;;;;;;;;;;5119356;28;19918;-45
2024/03/10 15:11:05;;;;;;;;;;;;;;;;;;5119018;28;19957;-45
2024/03/10 15:13:31;;;;;;;;;;;;;;;;;;5118734;28;19968;-45
2024/03/10 15:15:57;;;;;;;;;;;;;;;;;;5118585;28;19919;-45
2024/03/10 15:18:24;;;;;;;;;;;;;;;;;;5119030;28;19908;-45
2024/03/10 15:20:50;;;;;;;;;;;;;;;;;;5118653;28;19908;-45
2024/03/10 15:23:17;;;;;;;;;;;;;;;;;;5118714;28;20329;-45
2024/03/10 15:25:44;;;;;;;;;;;;;;;;;;5118868;28;19916;-45
2024/03/10 15:28:10;;;;;;;;;;;;;;;;;;5118237;28;19908;-45
2024/03/10 15:30:37;;;;;;;;;;;;;;;;;;5118596;28;19953;-45
2024/03/10 15:33:04;;;;;;;;;;;;;;;;;;5118797;28;20398;-45
2024/03/10 15:35:30;;;;;;;;;;;;;;;;;;5118704;28;19912;-45
2024/03/10 15:37:56;;;;;;;;;;;;;;;;;;5118624;28;19947;-45
2024/03/10 15:40:22;;;;;;;;;;;;;;;;;;5100189;28;19908;-45
2024/03/10 15:42:49;;;;;;;;;;;;;;;;;;5118559;28;19908;-45
2024/03/10 15:45:16;;;;;;;;;;;;;;;;;;5118571;28;19994;-45
2024/03/10 15:47:43;;;;;;;;;;;;;;;;;;5118199;28;19908;-45
2024/03/10 15:50:09;;;;;;;;;;;;;;;;;;5118291;28;19998;-45
2024/03/10 15:52:35;;;;;;;;;;;;;;;;;;5118548;28;19954;-45
2024/03/10 15:55:01;;;;;;;;;;;;;;;;;;5118343;28;20339;-45
2024/03/10 15:57:27;;;;;;;;;;;;;;;;;;5118617;28;19912;-45
2024/03/10 15:59:53;;;;;;;;;;;;;;;;;;5118486;28;19968;-45
2024/03/10 16:02:19;;;;;;;;;;;;;;;;;;5118702;28;19935;-45
2024/03/10 16:04:47;;;;;;;;;;;;;;;;;;5118220;28;19920;-45
2024/03/10 16:07:14;;;;;;;;;;;;;;;;;;5118432;28;19914;-45
2024/03/10 16:09:40;;;;;;;;;;;;;;;;;;5118089;28;19915;-45
2024/03/10 16:12:08;;;;;;;;;;;;;;;;;;5117959;28;19908;-45
2024/03/10 16:14:34;;;;;;;;;;;;;;;;;;5118078;28;19946;-46
2024/03/10 16:17:00;;;;;;;;;;;;;;;;;;5117989;28;19912;-45
2024/03/10 16:19:26;;;;;;;;;;;;;;;;;;5118317;28;19908;-45
2024/03/10 16:21:54;;;;;;;;;;;;;;;;;;5119528;28;19915;-45
2024/03/10 16:24:20;;;;;;;;;;;;;;;;;;5122207;28;19999;-45
2024/03/10 16:26:46;;;;;;;;;;;;;;;;;;5122380;28;19955;-45
2024/03/10 16:29:12;;;;;;;;;;;;;;;;;;5122122;28;19915;-45
2024/03/10 16:31:37;;;;;;;;;;;;;;;;;;5122298;28;19908;-45
2024/03/10 16:34:06;;;;;;;;;;;;;;;;;;5122163;28;20416;-45
2024/03/10 16:36:33;;;;;;;;;;;;;;;;;;5121890;28;19985;-45
2024/03/10 16:39:00;;;;;;;;;;;;;;;;;;5121781;28;20019;-45
2024/03/10 16:41:26;;;;;;;;;;;;;;;;;;5122012;28;19915;-45
2024/03/10 16:43:52;;;;;;;;;;;;;;;;;;5122267;28;19907;-45
2024/03/10 16:46:19;;;;;;;;;;;;;;;;;;5121781;28;19908;-45
2024/03/10 16:48:45;;;;;;;;;;;;;;;;;;5121625;28;19914;-46
2024/03/10 16:51:10;;;;;;;;;;;;;;;;;;5121837;28;20002;-45
2024/03/10 16:53:37;;;;;;;;;;;;;;;;;;5121560;28;20264;-45
2024/03/10 16:56:03;;;;;;;;;;;;;;;;;;5121289;28;19919;-45
2024/03/10 16:58:29;;;;;;;;;;;;;;;;;;5121485;28;19908;-45
2024/03/10 17:00:55;;;;;;;;;;;;;;;;;;5121199;28;20011;-45
2024/03/10 17:03:21;;;;;;;;;;;;;;;;;;5121591;28;19955;-45